ADDS METAR Data INFO
IDs: Format: Raw Decoded Include TAF

Data at: 1205 UTC 21 Jun 2018

KTKC 211156Z AUTO 04013KT 10SM DZ SCT024 SCT029 OVC048 16/16 A2985 RMK AO2 P0001 60064 70166 T01630156 10178 20162
KTKC 211155Z AUTO 04012G17KT 10SM DZ SCT024 SCT029 OVC048 16/16 A2985 RMK AO2 P0001 60064 70166 T01630156 10178 20162
KTKC 211136Z AUTO 05012G20KT 10SM RA SCT024 BKN046 OVC065 17/16 A2985 RMK AO2 P0001 T01650155
KTKC 211135Z AUTO 05012G20KT 10SM RA SCT024 BKN046 OVC065 17/16 A2985 RMK AO2 P0001 T01650155
KTKC 211116Z AUTO 05013G18KT 10SM -RA BKN046 OVC065 17/16 A2984 RMK AO2 T01650158
KTKC 211115Z AUTO 04012G18KT 10SM -RA BKN046 OVC065 17/16 A2984 RMK AO2 T01650159
KTKC 211056Z AUTO 04011KT 10SM -RA OVC046 16/16 A2984 RMK AO2 P0005 T01630157
KTKC 211055Z AUTO 04011KT 7SM -RA OVC046 16/16 A2984 RMK AO2 P0005 T01630157
KTKC 211035Z AUTO 04012G17KT 10SM RA OVC046 17/16 A2983 RMK AO2 P0003 T01650155
KTKC 211016Z AUTO 04013G18KT 10SM -RA OVC046 17/16 A2983 RMK AO2 P0002 T01690162
KTKC 211015Z AUTO 04013G18KT 7SM -RA OVC046 17/16 A2983 RMK AO2 P0002 T01690162
KTKC 210956Z AUTO 04013KT 7SM -RA OVC046 17/17 A2983 RMK AO2 P0012 T01730169
KTKC 210955Z AUTO 04012KT 7SM -RA SCT041 OVC046 17/17 A2983 RMK AO2 P0012 T01730169
KTKC 210935Z AUTO 03012G17KT 7SM RA SCT010 SCT016 OVC046 18/17 A2982 RMK AO2 P0009 T01750171
KTKC 210915Z AUTO 04011G15KT 7SM RA SCT012 SCT033 OVC046 18/17 A2982 RMK AO2 P0003 T01760172
KTKC 210856Z AUTO 04011G16KT 7SM RA SCT008 BKN039 OVC045 18/17 A2982 RMK AO2 LTG DSNT W P0013 60044 T01760172
KTKC 210855Z AUTO 04012G16KT 7SM RA SCT008 BKN039 OVC045 18/17 A2982 RMK AO2 LTG DSNT W P0013 60044 T01760172
KTKC 210836Z AUTO 05012G17KT 7SM RA SCT008 BKN013 OVC020 18/18 A2981 RMK AO2 P0010 T01770175
KTKC 210835Z AUTO 04012G17KT 7SM RA SCT008 BKN011 OVC017 18/18 A2981 RMK AO2 P0010 T01770175
KTKC 210816Z AUTO 04016G20KT 5SM RA SCT004 BKN009 OVC016 18/18 A2981 RMK AO2 P0005 T01770176
KTKC 210815Z AUTO 03014G19KT 5SM RA SCT004 BKN009 OVC016 18/18 A2981 RMK AO2 P0005 T01770176
KTKC 210756Z AUTO 03015G18KT 3SM +RA SCT004 BKN009 OVC016 18/18 A2980 RMK AO2 P0016 T01780177
KTKC 210755Z AUTO 03016KT 3SM +RA SCT004 BKN009 OVC016 18/18 A2980 RMK AO2 P0016 T01780177
KTKC 210735Z AUTO 02014KT 5SM +RA SCT004 BKN008 OVC014 18/18 A2981 RMK AO2 P0007 T01760175
KTKC 210716Z AUTO 01013KT 4SM RA OVC002 18/18 A2980 RMK AO2 P0002 T01750175
KTKC 210656Z AUTO 02014KT 7SM -RA OVC004 18/18 A2981 RMK AO2 P0014 T01750175
KTKC 210655Z AUTO 02012KT 7SM -RA OVC004 18/18 A2981 RMK AO2 P0014 T01750175
KTKC 210636Z AUTO 01012KT 4SM +RA OVC004 18/17 A2981 RMK AO2 P0012 T01750174
KTKC 210635Z AUTO 01012KT 4SM +RA OVC004 18/18 A2981 RMK AO2 P0011 T01750175
KTKC 210615Z AUTO 01011KT 7SM RA SCT004 BKN008 OVC036 18/18 A2982 RMK AO2 P0001 T01750175
KTKC 210556Z AUTO 02013KT 7SM -RA SCT006 BKN021 OVC038 18/18 A2982 RMK AO2 P0013 60084 T01750175 10190 20175 401970165
KTKC 210555Z AUTO 02013KT 7SM -RA SCT006 BKN021 OVC038 18/18 A2982 RMK AO2 P0013 60084 T01750175 10190 20175 401970165
KTKC 210535Z AUTO 01010KT 5SM RA SCT009 BKN020 OVC025 18/18 A2982 RMK AO2 P0012 T01750175
KTKC 210515Z AUTO 02010KT 5SM +RA SCT013 SCT023 OVC033 18/17 A2983 RMK AO2 LTG DSNT S P0007 T01750172
KTKC 210456Z AUTO 02010KT 5SM +RA SCT013 BKN020 OVC037 18/17 A2983 RMK AO2 P0018 T01760172
KTKC 210455Z AUTO 02010KT 5SM +RA SCT013 BKN020 OVC037 18/17 A2983 RMK AO2 P0018 T01750171
KTKC 210435Z AUTO 02009KT 7SM RA SCT016 BKN025 OVC041 18/17 A2983 RMK AO2 P0011 T01760171
KTKC 210415Z AUTO 02011KT 5SM +RA SCT023 BKN036 OVC060 18/17 A2984 RMK AO2 P0006 T01770171
KTKC 210356Z AUTO 02010KT 5SM +RA SCT023 BKN035 OVC049 18/17 A2984 RMK AO2 P0021 T01780170
KTKC 210355Z AUTO 02010KT 5SM +RA SCT023 BKN035 OVC049 18/17 A2984 RMK AO2 P0020 T01780170
KTKC 210336Z AUTO 01010KT 5SM RA SCT026 BKN038 OVC047 18/17 A2984 RMK AO2 P0012 T01780169
KTKC 210335Z AUTO 01009KT 5SM RA SCT026 BKN038 OVC047 18/17 A2984 RMK AO2 P0012 T01780169
KTKC 210315Z AUTO 01012G16KT 7SM +RA SCT020 BKN026 OVC039 18/17 A2984 RMK AO2 P0006 T01800168
KTKC 210256Z AUTO 35007KT 5SM +RA SCT023 BKN031 OVC043 18/17 A2985 RMK AO2 P0018 60028 T01760168
KTKC 210255Z AUTO 35008KT 5SM +RA SCT023 BKN031 OVC043 18/17 A2985 RMK AO2 P0017 60027 T01760168
KTKC 210235Z AUTO 34008KT 7SM RA SCT031 BKN043 OVC050 18/17 A2984 RMK AO2 P0007 T01770166
KTKC 210216Z AUTO 34008KT 10SM RA BKN046 OVC060 18/17 A2983 RMK AO2 P0002 T01780165
KTKC 210215Z AUTO 34008KT 10SM RA BKN046 OVC060 18/17 A2983 RMK AO2 P0001 T01780165
KTKC 210155Z AUTO 34010KT 10SM -RA SCT040 BKN046 OVC060 18/17 A2982 RMK AO2 P0004 T01760165
KTKC 210136Z AUTO 35009KT 10SM RA BKN041 OVC060 18/17 A2983 RMK AO2 P0003 T01780170
KTKC 210135Z AUTO 35009KT 10SM RA BKN041 BKN050 OVC060 18/17 A2983 RMK AO2 P0003 T01780170
KTKC 210116Z AUTO 36012KT 7SM RA BKN043 OVC050 18/17 A2984 RMK AO2 P0002 T01800172
KTKC 210115Z AUTO 36012KT 7SM RA SCT029 BKN043 OVC050 18/17 A2984 RMK AO2 P0002 T01800172
KTKC 210056Z AUTO 01012G17KT 5SM +RA SCT029 BKN034 OVC055 18/18 A2984 RMK AO2 P0005 T01830175
KTKC 210055Z AUTO 01013G17KT 5SM RA SCT029 BKN034 OVC047 18/18 A2984 RMK AO2 P0005 T01840175
KTKC 210036Z AUTO 01011G15KT 7SM RA SCT024 OVC034 19/18 A2984 RMK AO2 P0003 T01860178
KTKC 210035Z AUTO 01011G15KT 7SM RA SCT024 OVC034 19/18 A2984 RMK AO2 P0003 T01860178
KTKC 210016Z AUTO 01011G15KT 7SM RA SCT024 BKN036 OVC050 19/18 A2983 RMK AO2 P0001 T01890181
KTKC 210015Z AUTO 01010G15KT 7SM RA SCT024 BKN038 OVC050 19/18 A2984 RMK AO2 P0001 T01900181
KTKC 202355Z AUTO 01008KT 7SM -RA SCT024 BKN035 OVC050 19/18 A2984 RMK AO2 P0006 60014 T01900181 10197 20190
KTKC 202336Z AUTO 03008KT 7SM RA SCT028 BKN038 OVC045 19/18 A2984 RMK AO2 LTG DSNT E P0003 T01910182
KTKC 202335Z AUTO 03008KT 7SM RA SCT028 OVC038 19/18 A2984 RMK AO2 LTG DSNT E P0003 T01910181
KTKC 202316Z AUTO 01009KT 10SM -RA BKN039 OVC047 19/18 A2984 RMK AO2 P0002 T01920180
KTKC 202256Z AUTO 01010KT 10SM -RA SCT037 OVC048 19/18 A2983 RMK AO2 P0003 T01920178
KTKC 202255Z AUTO 01010KT 10SM -RA SCT037 OVC048 19/18 A2983 RMK AO2 P0003 T01920178
KTKC 202236Z AUTO 01010KT 7SM RA OVC048 19/18 A2983 RMK AO2 P0002 T01940177
KTKC 202235Z AUTO 01009KT 7SM RA SCT041 OVC048 20/18 A2983 RMK AO2 P0002 T01950177
KTKC 202215Z AUTO 02009KT 10SM -RA SCT035 OVC045 20/18 A2984 RMK AO2 P0001 T01950175
KTKC 202156Z AUTO 02010KT 10SM -RA OVC045 20/18 A2984 RMK AO2 T01960178
KTKC 202155Z AUTO 02009KT 10SM -RA OVC045 20/18 A2984 RMK AO2 T01960178
KTKC 202135Z AUTO 02008KT 10SM RA OVC045 20/18 A2984 RMK AO2 T01960176
KTKC 202116Z AUTO 01010KT 10SM DZ SCT033 OVC043 20/18 A2984 RMK AO2 T01950176
KTKC 202115Z AUTO 01011KT 10SM DZ SCT033 OVC043 20/18 A2984 RMK AO2 T01950176
KTKC 202056Z AUTO 02011KT 10SM -DZ SCT027 SCT031 OVC041 20/18 A2985 RMK AO2 60005 T01960175
KTKC 202055Z AUTO 02011KT 10SM -DZ SCT027 SCT031 OVC041 20/18 A2985 RMK AO2 60005 T01960176
KTKC 202035Z AUTO 03010KT 10SM -RA OVC041 20/18 A2985 RMK AO2 T01970177
KTKC 202016Z AUTO 03010KT 10SM -RA OVC039 20/18 A2986 RMK AO2 T01950176
KTKC 202015Z AUTO 03011KT 10SM -RA OVC039 20/18 A2986 RMK AO2 T01950176
KTKC 201956Z AUTO 04010KT 10SM RA BKN037 OVC047 20/18 A2987 RMK AO2 P0001 T01950179
KTKC 201955Z AUTO 04010KT 10SM RA BKN037 OVC047 20/18 A2987 RMK AO2 P0001 T01950180
KTKC 201936Z AUTO 03011G17KT 10SM -RA SCT037 OVC047 19/18 A2987 RMK AO2 P0001 T01920177
KTKC 201935Z AUTO 03013G17KT 10SM -RA BKN037 OVC047 19/18 A2987 RMK AO2 P0001 T01920178
KTKC 201916Z AUTO 03010KT 10SM -RA BKN034 OVC047 19/18 A2988 RMK AO2 T01910179
KTKC 201915Z AUTO 03010KT 10SM -RA BKN034 OVC047 19/18 A2988 RMK AO2 T01910179
KTKC 201856Z AUTO 03010KT 7SM RA SCT022 BKN031 OVC047 19/18 A2988 RMK AO2 P0003 T01900179
KTKC 201855Z AUTO 03010KT 7SM RA SCT022 BKN031 OVC047 19/18 A2988 RMK AO2 P0003 T01900180
KTKC 201836Z AUTO 03010KT 7SM RA SCT017 BKN033 OVC047 19/18 A2989 RMK AO2 P0002 T01900176
KTKC 201835Z AUTO 03010KT 7SM RA SCT021 BKN031 OVC047 19/18 A2989 RMK AO2 P0002 T01900177
KTKC 201816Z AUTO 02008KT 10SM -RA SCT021 BKN027 OVC041 19/18 A2989 RMK AO2 P0001 T01930180
KTKC 201815Z AUTO 03008KT 10SM -RA SCT021 BKN027 OVC041 19/18 A2989 RMK AO2 P0001 T01930180
KTKC 201756Z AUTO 03010KT 10SM -RA SCT028 BKN035 OVC042 19/18 A2988 RMK AO2 P0001 60003 T01920179 10195 20169
KTKC 201755Z AUTO 03011KT 10SM -RA BKN032 OVC037 19/18 A2988 RMK AO2 P0001 60003 T01920179 10195 20169
KTKC 201735Z AUTO 04010KT 10SM -RA SCT023 BKN029 OVC042 19/18 A2988 RMK AO2 P0001 T01910180
KTKC 201715Z AUTO 04010KT 10SM -RA SCT023 BKN030 OVC035 19/18 A2989 RMK AO2 T01900177
KTKC 201656Z AUTO 04011KT 7SM -RA BKN030 OVC040 19/17 A2990 RMK AO2 P0002 T01900174
KTKC 201655Z AUTO 04011KT 7SM -RA BKN030 BKN035 OVC040 19/17 A2990 RMK AO2 P0002 T01900174
KTKC 201636Z AUTO 04009G15KT 10SM RA SCT019 BKN041 OVC049 19/17 A2990 RMK AO2 P0001 T01910174
KTKC 201635Z AUTO 04010G15KT 10SM RA SCT019 BKN041 OVC049 19/17 A2990 RMK AO2 P0001 T01910174
KTKC 201615Z AUTO 04009KT 10SM -RA SCT022 SCT030 OVC047 19/17 A2991 RMK AO2 T01920171
KTKC 201555Z AUTO 03009KT 10SM -RA SCT025 OVC047 19/17 A2991 RMK AO2 T01930167
KTKC 201536Z AUTO 04009KT 10SM -DZ OVC047 20/17 A2991 RMK AO2 T01950167
KTKC 201535Z AUTO 04010KT 10SM -DZ OVC047 20/17 A2991 RMK AO2 T01950167
KTKC 201515Z AUTO 03008KT 10SM -DZ OVC047 19/16 A2992 RMK AO2 T01930164
KTKC 201455Z AUTO 03010KT 10SM -DZ OVC045 19/16 A2992 RMK AO2 T01920164
KTKC 201436Z AUTO 04008KT 10SM SCT034 OVC043 19/16 A2992 RMK AO2 T01900160
KTKC 201435Z AUTO 03008KT 10SM SCT034 OVC043 19/16 A2992 RMK AO2 T01900160
KTKC 201416Z AUTO 05005KT 10SM SCT034 OVC039 19/16 A2993 RMK AO2 T01870161
KTKC 201415Z AUTO 05006KT 10SM SCT034 OVC039 19/16 A2993 RMK AO2 T01870161
KTKC 201356Z AUTO 04007KT 10SM OVC039 19/16 A2992 RMK AO2 T01850161
KTKC 201355Z AUTO 03007KT 10SM OVC039 19/16 A2992 RMK AO2 T01850161
KTKC 201336Z AUTO 03007KT 10SM OVC041 18/16 A2993 RMK AO2 T01830162
KTKC 201335Z AUTO 02006KT 10SM OVC039 18/16 A2994 RMK AO2 T01830162
KTKC 201315Z AUTO 03004KT 10SM OVC037 18/16 A2994 RMK AO2 T01790159
KTKC 201255Z AUTO 02007KT 10SM OVC033 18/16 A2992 RMK AO2 T01760159
KTKC 201235Z AUTO 03007KT 10SM OVC033 18/16 A2992 RMK AO2 T01750156
KTKC 201216Z AUTO 03006KT 10SM OVC029 17/16 A2993 RMK AO2 T01710156
KTKC 201215Z AUTO 03005KT 10SM OVC029 17/16 A2993 RMK AO2 T01710155
KTKC 201155Z AUTO 02007KT 10SM OVC029 17/16 A2991 RMK AO2 70001 T01690155 10170 20165
KTKC 201136Z AUTO 03005KT 10SM OVC029 17/16 A2992 RMK AO2 T01680155
KTKC 201135Z AUTO 03006KT 10SM OVC029 17/16 A2992 RMK AO2 T01680155
KTKC 201116Z AUTO 04005KT 10SM OVC029 17/16 A2992 RMK AO2 T01680155
KTKC 201115Z AUTO 04005KT 10SM OVC029 17/16 A2992 RMK AO2 T01680155
KTKC 201056Z AUTO 03006KT 10SM OVC027 17/16 A2992 RMK AO2 T01680155
KTKC 201055Z AUTO 03006KT 10SM OVC027 17/16 A2992 RMK AO2 T01680155
KTKC 201036Z AUTO 02009KT 10SM OVC027 17/16 A2992 RMK AO2 T01680159
KTKC 201035Z AUTO 02009KT 10SM OVC027 17/16 A2992 RMK AO2 T01680159
KTKC 201015Z AUTO 01006KT 10SM OVC025 17/16 A2993 RMK AO2 T01700160
KTKC 200956Z AUTO 02005KT 10SM OVC025 17/16 A2994 RMK AO2 T01700156
KTKC 200955Z AUTO 02006KT 10SM OVC025 17/16 A2994 RMK AO2 T01700156
KTKC 200936Z AUTO 02005KT 10SM BKN023 OVC028 17/16 A2994 RMK AO2 T01700158
KTKC 200935Z AUTO 02005KT 10SM BKN023 OVC028 17/16 A2994 RMK AO2 T01700159
KTKC 200915Z AUTO 01004KT 10SM -DZ OVC023 17/16 A2995 RMK AO2 T01670157
KTKC 200856Z AUTO 01005KT 10SM OVC025 17/16 A2995 RMK AO2 T01670155
KTKC 200855Z AUTO 01004KT 10SM OVC025 17/16 A2995 RMK AO2 T01670155
KTKC 200836Z AUTO 36004KT 10SM OVC025 17/16 A2995 RMK AO2 LTG DSNT SE T01670155
KTKC 200835Z AUTO 36005KT 10SM OVC025 17/16 A2995 RMK AO2 LTG DSNT SE T01670155
KTKC 200815Z AUTO 35005KT 10SM OVC025 17/15 A2995 RMK AO2 T01670151
KTKC 200756Z AUTO 36006KT 10SM OVC025 17/15 A2995 RMK AO2 T01660150
KTKC 200755Z AUTO 36007KT 10SM OVC025 17/15 A2995 RMK AO2 T01660150
KTKC 200736Z AUTO 36006KT 10SM OVC025 17/16 A2994 RMK AO2 T01650156
KTKC 200735Z AUTO 36006KT 10SM OVC025 17/16 A2994 RMK AO2 T01650157
KTKC 200716Z AUTO 36006KT 10SM OVC025 17/16 A2995 RMK AO2 T01650162
KTKC 200715Z AUTO 36007KT 10SM OVC025 17/16 A2995 RMK AO2 T01650162
KTKC 200655Z AUTO 02004KT 10SM OVC025 17/17 A2995 RMK AO2 T01670166
KTKC 200636Z AUTO 03005KT 7SM SCT003 OVC023 17/17 A2996 RMK AO2 T01680167
KTKC 200635Z AUTO 03005KT 7SM SCT003 OVC023 17/17 A2996 RMK AO2 T01680167
KTKC 200615Z AUTO 04005KT 7SM SCT003 OVC023 17/17 A2996 RMK AO2 T01680167
KTKC 200555Z AUTO 04005KT 7SM BKN003 BKN008 OVC021 17/17 A2998 RMK AO2 LTG DSNT E T01670167 10178 20167 402050167
KTKC 200536Z AUTO 04006KT 7SM BKN003 OVC008 17/17 A2998 RMK AO2 T01670167
KTKC 200535Z AUTO 05007KT 7SM BKN003 OVC008 17/17 A2998 RMK AO2 T01670167
KTKC 200516Z AUTO 04009KT 5SM BR OVC003 17/17 A2998 RMK AO2 T01680168
KTKC 200515Z AUTO 04010KT 5SM BR OVC003 17/17 A2998 RMK AO2 T01680168
KTKC 200456Z AUTO 05010KT 5SM BR OVC003 17/17 A2997 RMK AO2 T01680168
KTKC 200455Z AUTO 05010KT 5SM BR OVC003 17/17 A2997 RMK AO2 T01680168
KTKC 200435Z AUTO 04008KT 2 1/2SM BR OVC003 17/17 A2997 RMK AO2 T01730173
KTKC 200416Z AUTO 06006KT 2 1/2SM BR BKN003 OVC007 17/17 A2998 RMK AO2 LTG DSNT SE T01730172
KTKC 200415Z AUTO 06006KT 2 1/2SM BR OVC003 17/17 A2998 RMK AO2 LTG DSNT SE T01730172
KTKC 200356Z AUTO 06009KT 4SM BR OVC005 17/17 A2997 RMK AO2 T01730172
KTKC 200355Z AUTO 06010KT 4SM BR OVC005 17/17 A2997 RMK AO2 T01730172
KTKC 200336Z AUTO 05008KT 4SM BR OVC003 17/17 A2997 RMK AO2 T01720172
KTKC 200335Z AUTO 05008KT 4SM BR OVC003 17/17 A2997 RMK AO2 T01720172
KTKC 200316Z AUTO 05009KT 4SM BR BKN003 OVC008 17/17 A2996 RMK AO2 T01730172
KTKC 200315Z AUTO 05010KT 4SM BR BKN003 OVC008 17/17 A2996 RMK AO2 T01720172
KTKC 200255Z AUTO 05009KT 4SM BR BKN003 OVC009 17/17 A2996 RMK AO2 T01720171
KTKC 200235Z AUTO 05008KT 5SM BR OVC003 17/17 A2995 RMK AO2 T01720171
KTKC 200216Z AUTO 05010KT 7SM OVC003 17/17 A2995 RMK AO2 T01730172
KTKC 200215Z AUTO 04009KT 7SM -DZ OVC003 17/17 A2995 RMK AO2 T01730172
KTKC 200155Z AUTO 04008KT 4SM -DZ OVC005 17/17 A2995 RMK AO2 T01730172
KTKC 200136Z AUTO 05009KT 7SM BKN005 OVC011 18/17 A2995 RMK AO2 T01750173
KTKC 200135Z AUTO 05009KT 7SM BKN005 OVC011 18/17 A2995 RMK AO2 T01750173
KTKC 200116Z AUTO 05009KT 10SM BKN005 OVC009 18/18 A2995 RMK AO2 T01750175
KTKC 200115Z AUTO 04008KT 10SM BKN005 OVC009 18/18 A2995 RMK AO2 T01750175
KTKC 200055Z AUTO 03011KT 2SM RA OVC005 18/18 A2995 RMK AO2 VIS 1 1/4V2 1/2 LTG DSNT W T01760175
KTKC 200036Z AUTO 04009KT 10SM BKN007 OVC014 18/18 A2995 RMK AO2 LTG DSNT W T01770175
KTKC 200035Z AUTO 04008KT 10SM BKN007 OVC014 18/18 A2995 RMK AO2 LTG DSNT W T01770175
KTKC 200016Z AUTO 05011KT 10SM BKN007 OVC012 18/18 A2995 RMK AO2 T01770175
KTKC 200015Z AUTO 05010KT 10SM BKN007 OVC014 18/18 A2995 RMK AO2 T01770175